Kezdőlap
METAR-TAF:

METAR-TAF

Repülőterek :

Luangphabang, Laosz

földrajzi szélesség: 19-53N, földrajzi hosszúság: 102-08E, magasság: 305 m

Jelenlegi meteorológiai megfigyelések

A jelentés 1 órával és 12 perccel ezelõtt készült, 12:00 UTC
Déli szél 2 kt
Hőmérséklet 31°C
Páratartalom 71%
Légköri nyomás 1004 hPa
Látótávolság 10 km, vagy több
Szórványos felhőzet 2000 lábon
Szakadozott felhőzet 8000 lábon

METAR: VLLB 271200Z 18002KT 9999 SCT020 BKN080 31/25 Q1004 NOSIG

Idő: 20:12 (13:12 UTC)

Előrejelzés

A jelentés 2 órával és 12 perccel ezelõtt készült, 11:00 UTC
Az előrejelzés 27-én 12 óra UTC és 28-én 12 óra UTC között érvényes
Nyugat-délnyugati szél 4 kt
Látótávolság: 4000 m
Szórványos felhőzet 2000 lábon
Szakadozott felhőzet 8000 lábon
Párásság,

TAF: VLLB 271100Z 2712/2812 24004KT 4000 BR SCT020 BKN080

Meteorológiai megfigyelések és előrejelzések több, mint 4000 repülőtéren (METAR és TAF jelentéseket).

A térképen piros és sárga pontok jelzik az elérhető meteorológiai állomásokat.

Mozgassa az egeret a pont fölött, hogy megjelenjen az állomás neve.

Azután kattintson az időjárási megfigyelések és előrejelzések megtekintéséhez.

A térkép megváltoztatása: kattintson a fekete keresztel jelölt zöld gombra ráközelítéshez, a vonallal jelölt zöld gombra távolításhoz, vagy a zöld nyilakra a szomszédos térképek eléréséhez.


METAR-TAF: